Time,TemperatureF,DewpointF,PressureIn,WindDirection,WindDirectionDegrees,WindSpeedMPH,WindSpeedGustMPH,Humidity,HourlyPrecipIn,Conditions,Clouds,dailyrainin,SoftwareType,DateUTC
2013-02-11 00:05:00,68.8,65.1,30.17,East,96,6.0,7.0,88,0.00,,,0.00,Wunderground v.1.15,2013-02-11 10:05:00,
2013-02-11 00:15:00,69.0,65.3,30.16,East,82,6.0,6.0,88,0.00,,,0.00,Wunderground v.1.15,2013-02-11 10:15:00,
2013-02-11 00:25:00,69.3,65.3,30.16,ENE,64,6.0,7.0,87,0.00,,,0.00,Wunderground v.1.15,2013-02-11 10:25:00,
2013-02-11 00:35:00,69.6,65.6,30.16,ENE,64,6.0,6.0,87,0.00,,,0.00,Wunderground v.1.15,2013-02-11 10:35:00,
2013-02-11 00:40:00,69.7,65.7,30.16,ENE,68,6.0,6.0,87,0.00,,,0.00,Wunderground v.1.15,2013-02-11 10:40:00,
2013-02-11 00:50:00,69.7,65.7,30.16,ENE,73,5.0,9.0,87,0.00,,,0.00,Wunderground v.1.15,2013-02-11 10:50:00,
2013-02-11 01:00:00,70.0,65.6,30.16,East,95,6.0,6.0,86,0.00,,,0.00,Wunderground v.1.15,2013-02-11 11:00:00,
2013-02-11 01:05:00,70.0,65.6,30.16,NE,53,6.0,11.0,86,0.00,,,0.00,Wunderground v.1.15,2013-02-11 11:05:00,
2013-02-11 01:15:00,70.0,65.3,30.16,ESE,109,6.0,6.0,85,0.00,,,0.00,Wunderground v.1.15,2013-02-11 11:15:00,
2013-02-11 01:20:00,70.0,64.9,30.16,ENE,69,6.0,6.0,84,0.00,,,0.00,Wunderground v.1.15,2013-02-11 11:20:00,
2013-02-11 01:30:00,70.1,65.4,30.16,ENE,78,6.0,6.0,85,0.00,,,0.00,Wunderground v.1.15,2013-02-11 11:30:00,
2013-02-11 01:40:00,70.3,65.2,30.15,ENE,60,6.0,6.0,84,0.00,,,0.00,Wunderground v.1.15,2013-02-11 11:40:00,
2013-02-11 01:50:00,69.7,65.0,30.15,East,86,7.0,9.0,85,0.00,,,0.00,Wunderground v.1.15,2013-02-11 11:50:00,
2013-02-11 02:00:00,69.6,64.9,30.15,East,79,7.0,7.0,85,0.00,,,0.00,Wunderground v.1.15,2013-02-11 12:00:00,
2013-02-11 02:05:00,69.6,64.9,30.15,East,101,6.0,7.0,85,0.00,,,0.00,Wunderground v.1.15,2013-02-11 12:05:00,
2013-02-11 02:15:00,69.8,65.1,30.14,NE,56,6.0,6.0,85,0.00,,,0.00,Wunderground v.1.15,2013-02-11 12:15:00,
2013-02-11 02:25:00,69.9,64.8,30.14,ESE,108,6.0,6.0,84,0.00,,,0.00,Wunderground v.1.15,2013-02-11 12:25:00,
2013-02-11 02:35:00,69.9,65.5,30.14,ESE,112,6.0,11.0,86,0.00,,,0.01,Wunderground v.1.15,2013-02-11 12:35:00,
2013-02-11 02:45:00,69.6,64.5,30.13,ESE,103,7.0,7.0,84,0.00,,,0.01,Wunderground v.1.15,2013-02-11 12:45:00,
2013-02-11 02:55:00,69.7,64.3,30.13,ENE,64,7.0,10.0,83,0.00,,,0.01,Wunderground v.1.15,2013-02-11 12:55:00,
2013-02-11 03:05:00,69.9,64.2,30.13,East,86,6.0,7.0,82,0.00,,,0.01,Wunderground v.1.15,2013-02-11 13:05:00,
2013-02-11 03:15:00,69.9,63.8,30.13,ENE,65,6.0,9.0,81,0.00,,,0.01,Wunderground v.1.15,2013-02-11 13:15:00,
2013-02-11 03:25:00,70.0,63.5,30.13,East,92,7.0,7.0,80,0.00,,,0.01,Wunderground v.1.15,2013-02-11 13:25:00,
2013-02-11 03:30:00,69.9,64.2,30.13,East,80,6.0,6.0,82,0.00,,,0.01,Wunderground v.1.15,2013-02-11 13:30:00,
2013-02-11 03:35:00,69.7,64.0,30.12,East,91,5.0,6.0,82,0.00,,,0.01,Wunderground v.1.15,2013-02-11 13:35:00,
2013-02-11 03:40:00,69.6,63.9,30.12,East,95,6.0,6.0,82,0.00,,,0.01,Wunderground v.1.15,2013-02-11 13:40:00,
2013-02-11 03:50:00,69.8,64.1,30.12,East,94,6.0,7.0,82,0.00,,,0.01,Wunderground v.1.15,2013-02-11 13:50:00,
2013-02-11 04:00:00,69.9,64.2,30.12,ENE,74,8.0,8.0,82,0.00,,,0.01,Wunderground v.1.15,2013-02-11 14:00:00,
2013-02-11 04:05:00,69.6,64.2,30.12,East,90,5.0,8.0,83,0.00,,,0.01,Wunderground v.1.15,2013-02-11 14:05:00,
2013-02-11 04:15:00,69.7,64.6,30.12,NE,41,5.0,12.0,84,0.00,,,0.01,Wunderground v.1.15,2013-02-11 14:15:00,
2013-02-11 04:25:00,69.7,64.3,30.12,East,101,7.0,12.0,83,0.00,,,0.01,Wunderground v.1.15,2013-02-11 14:25:00,
2013-02-11 04:35:00,69.5,64.1,30.11,ENE,60,5.0,10.0,83,0.00,,,0.01,Wunderground v.1.15,2013-02-11 14:35:00,
2013-02-11 04:45:00,69.3,63.9,30.12,East,84,4.0,6.0,83,0.00,,,0.01,Wunderground v.1.15,2013-02-11 14:45:00,
2013-02-11 04:55:00,69.4,64.4,30.11,ESE,103,4.0,6.0,84,0.00,,,0.01,Wunderground v.1.15,2013-02-11 14:55:00,
2013-02-11 05:00:00,69.5,64.1,30.11,ESE,102,4.0,9.0,83,0.00,,,0.01,Wunderground v.1.15,2013-02-11 15:00:00,
2013-02-11 05:05:00,69.7,64.3,30.11,ENE,72,5.0,9.0,83,0.00,,,0.01,Wunderground v.1.15,2013-02-11 15:05:00,
2013-02-11 05:15:00,69.6,63.9,30.11,East,88,5.0,6.0,82,0.00,,,0.01,Wunderground v.1.15,2013-02-11 15:15:00,
2013-02-11 05:25:00,69.4,63.3,30.11,ENE,72,5.0,6.0,81,0.00,,,0.01,Wunderground v.1.15,2013-02-11 15:25:00,
2013-02-11 05:35:00,69.5,64.1,30.12,ENE,62,5.0,5.0,83,0.00,,,0.01,Wunderground v.1.15,2013-02-11 15:35:00,
2013-02-11 05:40:00,69.6,64.2,30.12,East,83,6.0,6.0,83,0.00,,,0.01,Wunderground v.1.15,2013-02-11 15:40:00,
2013-02-11 05:50:00,69.8,64.4,30.12,ENE,66,6.0,6.0,83,0.00,,,0.01,Wunderground v.1.15,2013-02-11 15:50:00,
2013-02-11 05:55:00,69.8,64.4,30.12,ENE,70,6.0,6.0,83,0.00,,,0.01,Wunderground v.1.15,2013-02-11 15:55:00,
2013-02-11 06:05:00,69.2,64.2,30.13,ENE,64,4.0,5.0,84,0.00,,,0.01,Wunderground v.1.15,2013-02-11 16:05:00,
2013-02-11 06:15:00,69.4,64.0,30.13,ESE,105,5.0,7.0,83,0.00,,,0.01,Wunderground v.1.15,2013-02-11 16:15:00,
2013-02-11 06:25:00,69.4,64.0,30.14,East,92,5.0,5.0,83,0.00,,,0.01,Wunderground v.1.15,2013-02-11 16:25:00,
2013-02-11 06:35:00,69.6,64.2,30.15,ENE,64,4.0,6.0,83,0.00,,,0.01,Wunderground v.1.15,2013-02-11 16:35:00,
2013-02-11 06:45:00,69.2,63.8,30.15,East,79,5.0,8.0,83,0.00,,,0.01,Wunderground v.1.15,2013-02-11 16:45:00,
2013-02-11 06:55:00,68.9,64.2,30.16,ENE,57,5.0,5.0,85,0.00,,,0.01,Wunderground v.1.15,2013-02-11 16:55:00,
2013-02-11 07:00:00,68.8,64.4,30.16,ENE,69,4.0,4.0,86,0.00,,,0.01,Wunderground v.1.15,2013-02-11 17:00:00,
2013-02-11 07:05:00,69.0,65.0,30.16,East,89,4.0,4.0,87,0.00,,,0.01,Wunderground v.1.15,2013-02-11 17:05:00,
2013-02-11 07:15:00,69.6,65.9,30.17,ENE,61,5.0,5.0,88,0.00,,,0.01,Wunderground v.1.15,2013-02-11 17:15:00,
2013-02-11 07:25:00,69.9,66.5,30.17,NNE,19,6.0,6.0,89,0.00,,,0.01,Wunderground v.1.15,2013-02-11 17:25:00,
2013-02-11 07:35:00,69.3,66.6,30.17,ENE,63,7.0,10.0,91,0.00,,,0.01,Wunderground v.1.15,2013-02-11 17:35:00,
2013-02-11 07:40:00,68.9,66.2,30.17,East,95,7.0,9.0,91,0.00,,,0.01,Wunderground v.1.15,2013-02-11 17:40:00,
2013-02-11 07:50:00,68.6,65.9,30.17,East,79,5.0,5.0,91,0.00,,,0.01,Wunderground v.1.15,2013-02-11 17:50:00,
2013-02-11 08:00:00,68.4,65.4,30.17,NE,48,4.0,5.0,90,0.00,,,0.01,Wunderground v.1.15,2013-02-11 18:00:00,
2013-02-11 08:05:00,68.6,65.2,30.18,NE,55,5.0,5.0,89,0.00,,,0.01,Wunderground v.1.15,2013-02-11 18:05:00,
2013-02-11 08:15:00,68.7,65.0,30.17,ESE,122,4.0,5.0,88,0.00,,,0.01,Wunderground v.1.15,2013-02-11 18:15:00,
2013-02-11 08:25:00,69.3,65.3,30.17,ENE,65,4.0,6.0,87,0.00,,,0.01,Wunderground v.1.15,2013-02-11 18:25:00,
2013-02-11 08:35:00,69.5,65.5,30.17,ENE,71,3.0,6.0,87,0.00,,,0.01,Wunderground v.1.15,2013-02-11 18:35:00,
2013-02-11 08:40:00,69.7,65.7,30.17,ENE,67,4.0,4.0,87,0.00,,,0.01,Wunderground v.1.15,2013-02-11 18:40:00,
2013-02-11 08:45:00,70.3,65.9,30.17,NNE,28,5.0,5.0,86,0.00,,,0.01,Wunderground v.1.15,2013-02-11 18:45:00,
2013-02-11 08:55:00,71.5,65.4,30.17,ENE,57,5.0,6.0,81,0.00,,,0.01,Wunderground v.1.15,2013-02-11 18:55:00,
2013-02-11 09:05:00,72.2,66.0,30.18,East,99,3.0,10.0,81,0.00,,,0.01,Wunderground v.1.15,2013-02-11 19:05:00,
2013-02-11 09:15:00,71.8,65.7,30.18,ENE,76,5.0,5.0,81,0.00,,,0.01,Wunderground v.1.15,2013-02-11 19:15:00,
2013-02-11 09:25:00,71.9,66.5,30.18,ESE,117,5.0,6.0,83,0.00,,,0.01,Wunderground v.1.15,2013-02-11 19:25:00,
2013-02-11 09:30:00,72.2,66.0,30.18,ENE,78,4.0,5.0,81,0.00,,,0.01,Wunderground v.1.15,2013-02-11 19:30:00,
2013-02-11 09:40:00,71.5,65.4,30.18,ESE,110,4.0,4.0,81,0.00,,,0.01,Wunderground v.1.15,2013-02-11 19:40:00,
2013-02-11 09:45:00,71.3,65.9,30.18,SE,129,4.0,4.0,83,0.00,,,0.01,Wunderground v.1.15,2013-02-11 19:45:00,
2013-02-11 09:55:00,72.1,66.6,30.18,NE,42,4.0,9.0,83,0.00,,,0.01,Wunderground v.1.15,2013-02-11 19:55:00,
2013-02-11 10:00:00,72.3,66.1,30.18,ENE,76,6.0,6.0,81,0.00,,,0.01,Wunderground v.1.15,2013-02-11 20:00:00,
2013-02-11 10:05:00,72.6,65.7,30.18,East,94,6.0,6.0,79,0.00,,,0.01,Wunderground v.1.15,2013-02-11 20:05:00,
2013-02-11 10:15:00,72.0,65.8,30.18,East,98,5.0,9.0,81,0.00,,,0.01,Wunderground v.1.15,2013-02-11 20:15:00,
2013-02-11 10:25:00,71.9,65.4,30.19,East,98,5.0,9.0,80,0.00,,,0.01,Wunderground v.1.15,2013-02-11 20:25:00,
2013-02-11 10:35:00,71.7,65.9,30.19,East,90,4.0,4.0,82,0.00,,,0.01,Wunderground v.1.15,2013-02-11 20:35:00,
2013-02-11 10:40:00,71.9,66.8,30.19,ESE,107,4.0,4.0,84,0.00,,,0.01,Wunderground v.1.15,2013-02-11 20:40:00,
2013-02-11 10:50:00,72.0,65.8,30.19,ESE,117,5.0,9.0,81,0.00,,,0.01,Wunderground v.1.15,2013-02-11 20:50:00,
2013-02-11 11:00:00,72.6,66.8,30.18,ENE,74,4.0,5.0,82,0.00,,,0.01,Wunderground v.1.15,2013-02-11 21:00:00,
2013-02-11 11:05:00,73.2,67.0,30.18,SE,125,4.0,5.0,81,0.00,,,0.01,Wunderground v.1.15,2013-02-11 21:05:00,
2013-02-11 11:15:00,73.0,66.1,30.18,NE,44,6.0,6.0,79,0.00,,,0.01,Wunderground v.1.15,2013-02-11 21:15:00,
2013-02-11 11:20:00,72.5,66.3,30.18,NE,52,5.0,7.0,81,0.00,,,0.01,Wunderground v.1.15,2013-02-11 21:20:00,
2013-02-11 11:30:00,71.5,66.4,30.18,ENE,68,5.0,5.0,84,0.00,,,0.01,Wunderground v.1.15,2013-02-11 21:30:00,
2013-02-11 11:35:00,71.2,65.8,30.18,East,95,4.0,5.0,83,0.00,,,0.01,Wunderground v.1.15,2013-02-11 21:35:00,
2013-02-11 11:45:00,72.0,65.8,30.18,ENE,61,5.0,7.0,81,0.00,,,0.01,Wunderground v.1.15,2013-02-11 21:45:00,
2013-02-11 11:55:00,72.0,65.8,30.17,ENE,72,6.0,7.0,81,0.00,,,0.01,Wunderground v.1.15,2013-02-11 21:55:00,
2013-02-11 12:00:00,72.7,66.9,30.17,NE,36,6.0,12.0,82,0.00,,,0.01,Wunderground v.1.15,2013-02-11 22:00:00,
2013-02-11 12:05:00,73.3,67.1,30.16,NE,36,6.0,13.0,81,0.00,,,0.01,Wunderground v.1.15,2013-02-11 22:05:00,
2013-02-11 12:15:00,72.8,66.3,30.16,ENE,77,7.0,7.0,80,0.00,,,0.01,Wunderground v.1.15,2013-02-11 22:15:00,
2013-02-11 12:25:00,73.1,66.2,30.16,NE,41,6.0,10.0,79,0.00,,,0.01,Wunderground v.1.15,2013-02-11 22:25:00,
2013-02-11 12:30:00,73.1,66.6,30.16,ENE,72,6.0,7.0,80,0.00,,,0.01,Wunderground v.1.15,2013-02-11 22:30:00,
2013-02-11 12:40:00,73.6,66.3,30.15,East,101,7.0,10.0,78,0.00,,,0.01,Wunderground v.1.15,2013-02-11 22:40:00,
2013-02-11 12:50:00,73.7,66.4,30.14,East,82,8.0,10.0,78,0.00,,,0.01,Wunderground v.1.15,2013-02-11 22:50:00,
2013-02-11 13:00:00,74.0,65.6,30.13,NE,38,8.0,8.0,75,0.00,,,0.01,Wunderground v.1.15,2013-02-11 23:00:00,
2013-02-11 13:05:00,74.3,65.9,30.13,NNE,33,8.0,12.0,75,0.00,,,0.01,Wunderground v.1.15,2013-02-11 23:05:00,
2013-02-11 13:15:00,72.8,67.0,30.13,ENE,76,9.0,14.0,82,0.00,,,0.01,Wunderground v.1.15,2013-02-11 23:15:00,
2013-02-11 13:25:00,71.2,66.8,30.13,NE,36,9.0,11.0,86,0.00,,,0.01,Wunderground v.1.15,2013-02-11 23:25:00,
2013-02-11 13:30:00,71.5,66.1,30.13,NNE,31,10.0,10.0,83,0.00,,,0.01,Wunderground v.1.15,2013-02-11 23:30:00,
2013-02-11 13:40:00,72.6,66.1,30.13,ENE,64,8.0,8.0,80,0.00,,,0.01,Wunderground v.1.15,2013-02-11 23:40:00,
2013-02-11 13:45:00,72.2,65.7,30.13,ENE,61,9.0,9.0,80,0.00,,,0.01,Wunderground v.1.15,2013-02-11 23:45:00,
2013-02-11 13:50:00,72.5,66.0,30.13,ENE,57,8.0,8.0,80,0.00,,,0.01,Wunderground v.1.15,2013-02-11 23:50:00,
2013-02-11 14:00:00,71.4,66.3,30.13,ENE,64,8.0,8.0,84,0.00,,,0.01,Wunderground v.1.15,2013-02-12 00:00:00,
2013-02-11 14:05:00,71.0,65.9,30.12,NE,53,7.0,8.0,84,0.00,,,0.01,Wunderground v.1.15,2013-02-12 00:05:00,
2013-02-11 14:15:00,71.0,66.3,30.12,NE,35,4.0,9.0,85,0.00,,,0.01,Wunderground v.1.15,2013-02-12 00:15:00,
2013-02-11 14:25:00,70.9,66.5,30.12,ENE,68,7.0,9.0,86,0.00,,,0.01,Wunderground v.1.15,2013-02-12 00:25:00,
2013-02-11 14:35:00,70.0,66.0,30.12,NE,40,7.0,10.0,87,0.00,,,0.02,Wunderground v.1.15,2013-02-12 00:35:00,
2013-02-11 14:45:00,69.2,66.5,30.12,ENE,74,6.0,7.0,91,0.13,,,0.04,Wunderground v.1.15,2013-02-12 00:45:00,
2013-02-11 14:55:00,68.7,66.0,30.11,NE,56,5.0,8.0,91,0.05,,,0.05,Wunderground v.1.15,2013-02-12 00:55:00,
2013-02-11 15:00:00,68.7,66.3,30.11,ENE,67,6.0,6.0,92,0.05,,,0.05,Wunderground v.1.15,2013-02-12 01:00:00,
2013-02-11 15:05:00,69.0,66.3,30.10,NE,37,5.0,6.0,91,0.04,,,0.05,Wunderground v.1.15,2013-02-12 01:05:00,
2013-02-11 15:15:00,70.0,67.3,30.10,NE,54,5.0,6.0,91,0.00,,,0.05,Wunderground v.1.15,2013-02-12 01:15:00,
2013-02-11 15:25:00,71.1,66.7,30.10,East,80,6.0,6.0,86,0.00,,,0.05,Wunderground v.1.15,2013-02-12 01:25:00,
2013-02-11 15:30:00,71.4,66.0,30.10,ENE,78,7.0,11.0,83,0.00,,,0.05,Wunderground v.1.15,2013-02-12 01:30:00,
2013-02-11 15:40:00,71.3,65.5,30.09,NE,36,9.0,9.0,82,0.00,,,0.05,Wunderground v.1.15,2013-02-12 01:40:00,
2013-02-11 15:50:00,70.5,66.1,30.10,ENE,65,7.0,7.0,86,0.00,,,0.05,Wunderground v.1.15,2013-02-12 01:50:00,
2013-02-11 16:00:00,69.3,66.2,30.10,East,101,7.0,10.0,90,0.00,,,0.05,Wunderground v.1.15,2013-02-12 02:00:00,
2013-02-11 16:05:00,69.6,66.5,30.10,ENE,69,6.0,10.0,90,0.00,,,0.05,Wunderground v.1.15,2013-02-12 02:05:00,
2013-02-11 16:15:00,69.7,66.3,30.10,ENE,60,6.0,15.0,89,0.00,,,0.05,Wunderground v.1.15,2013-02-12 02:15:00,
2013-02-11 16:25:00,69.3,66.2,30.09,NE,45,6.0,7.0,90,0.00,,,0.05,Wunderground v.1.15,2013-02-12 02:25:00,
2013-02-11 16:35:00,70.0,66.3,30.10,ENE,60,6.0,6.0,88,0.00,,,0.05,Wunderground v.1.15,2013-02-12 02:35:00,
2013-02-11 16:45:00,70.1,65.7,30.10,East,96,7.0,9.0,86,0.00,,,0.05,Wunderground v.1.15,2013-02-12 02:45:00,
2013-02-11 16:55:00,68.8,65.1,30.10,East,94,6.0,9.0,88,0.00,,,0.06,Wunderground v.1.15,2013-02-12 02:55:00,
2013-02-11 17:05:00,68.4,65.4,30.10,East,98,5.0,6.0,90,0.00,,,0.06,Wunderground v.1.15,2013-02-12 03:05:00,
2013-02-11 17:15:00,68.0,64.6,30.11,ENE,67,4.0,5.0,89,0.00,,,0.06,Wunderground v.1.15,2013-02-12 03:15:00,
2013-02-11 17:25:00,67.8,64.1,30.11,East,92,6.0,6.0,88,0.00,,,0.07,Wunderground v.1.15,2013-02-12 03:25:00,
2013-02-11 17:35:00,68.1,64.1,30.11,ENE,64,6.0,6.0,87,0.00,,,0.07,Wunderground v.1.15,2013-02-12 03:35:00,
2013-02-11 17:45:00,68.0,64.0,30.11,ESE,102,5.0,6.0,87,0.00,,,0.07,Wunderground v.1.15,2013-02-12 03:45:00,
2013-02-11 17:50:00,67.9,63.9,30.12,ESE,114,5.0,7.0,87,0.00,,,0.07,Wunderground v.1.15,2013-02-12 03:50:00,
2013-02-11 18:00:00,67.9,63.9,30.12,East,88,7.0,7.0,87,0.00,,,0.07,Wunderground v.1.15,2013-02-12 04:00:00,
2013-02-11 18:05:00,68.1,63.8,30.12,ENE,63,7.0,7.0,86,0.00,,,0.07,Wunderground v.1.15,2013-02-12 04:05:00,
2013-02-11 18:15:00,68.2,63.9,30.13,ENE,71,5.0,6.0,86,0.00,,,0.07,Wunderground v.1.15,2013-02-12 04:15:00,
2013-02-11 18:25:00,68.2,63.9,30.13,East,84,5.0,12.0,86,0.00,,,0.07,Wunderground v.1.15,2013-02-12 04:25:00,
2013-02-11 18:35:00,68.7,63.3,30.13,ENE,74,6.0,6.0,83,0.00,,,0.07,Wunderground v.1.15,2013-02-12 04:35:00,
2013-02-11 18:40:00,68.6,62.9,30.14,NNE,20,6.0,6.0,82,0.00,,,0.07,Wunderground v.1.15,2013-02-12 04:40:00,
2013-02-11 18:50:00,68.9,63.2,30.14,ESE,102,5.0,5.0,82,0.00,,,0.08,Wunderground v.1.15,2013-02-12 04:50:00,
2013-02-11 19:00:00,69.5,63.1,30.14,ENE,65,6.0,8.0,80,0.00,,,0.08,Wunderground v.1.15,2013-02-12 05:00:00,
2013-02-11 19:05:00,69.4,63.0,30.15,ENE,72,5.0,8.0,80,0.00,,,0.08,Wunderground v.1.15,2013-02-12 05:05:00,
2013-02-11 19:10:00,69.7,62.9,30.15,NE,55,6.0,10.0,79,0.00,,,0.08,Wunderground v.1.15,2013-02-12 05:10:00,
2013-02-11 19:15:00,69.8,63.3,30.15,NE,46,7.0,10.0,80,0.00,,,0.08,Wunderground v.1.15,2013-02-12 05:15:00,
2013-02-11 19:20:00,69.7,62.9,30.15,NE,38,5.0,5.0,79,0.00,,,0.08,Wunderground v.1.15,2013-02-12 05:20:00,
2013-02-11 19:30:00,69.8,62.6,30.15,ENE,60,6.0,7.0,78,0.00,,,0.08,Wunderground v.1.15,2013-02-12 05:30:00,
2013-02-11 19:40:00,70.1,62.6,30.15,ENE,65,7.0,7.0,77,0.00,,,0.08,Wunderground v.1.15,2013-02-12 05:40:00,
2013-02-11 19:50:00,70.3,63.1,30.16,East,81,6.0,6.0,78,0.00,,,0.08,Wunderground v.1.15,2013-02-12 05:50:00,
2013-02-11 20:00:00,69.1,62.3,30.16,NE,52,6.0,6.0,79,0.00,,,0.08,Wunderground v.1.15,2013-02-12 06:00:00,
2013-02-11 20:05:00,69.6,62.8,30.17,East,86,6.0,9.0,79,0.00,,,0.08,Wunderground v.1.15,2013-02-12 06:05:00,
2013-02-11 20:15:00,70.2,62.6,30.17,ENE,63,7.0,7.0,77,0.00,,,0.08,Wunderground v.1.15,2013-02-12 06:15:00,
2013-02-11 20:25:00,70.1,62.6,30.17,ENE,65,6.0,7.0,77,0.00,,,0.08,Wunderground v.1.15,2013-02-12 06:25:00,
2013-02-11 20:35:00,70.2,61.9,30.16,East,97,7.0,7.0,75,0.00,,,0.08,Wunderground v.1.15,2013-02-12 06:35:00,
2013-02-11 20:45:00,70.1,61.8,30.17,NE,45,7.0,7.0,75,0.00,,,0.08,Wunderground v.1.15,2013-02-12 06:45:00,
2013-02-11 20:50:00,70.2,62.3,30.17,East,84,7.0,9.0,76,0.00,,,0.08,Wunderground v.1.15,2013-02-12 06:50:00,
2013-02-11 21:00:00,70.1,62.6,30.17,East,80,5.0,5.0,77,0.00,,,0.08,Wunderground v.1.15,2013-02-12 07:00:00,
2013-02-11 21:05:00,70.0,62.5,30.17,NE,53,5.0,10.0,77,0.00,,,0.08,Wunderground v.1.15,2013-02-12 07:05:00,
2013-02-11 21:15:00,69.9,62.7,30.17,ENE,65,5.0,6.0,78,0.00,,,0.08,Wunderground v.1.15,2013-02-12 07:15:00,
2013-02-11 21:25:00,69.7,62.5,30.17,ESE,114,5.0,6.0,78,0.00,,,0.08,Wunderground v.1.15,2013-02-12 07:25:00,
2013-02-11 21:35:00,69.2,62.4,30.17,ENE,76,5.0,11.0,79,0.00,,,0.08,Wunderground v.1.15,2013-02-12 07:35:00,
2013-02-11 21:45:00,69.5,62.3,30.18,ENE,63,6.0,6.0,78,0.00,,,0.08,Wunderground v.1.15,2013-02-12 07:45:00,
2013-02-11 21:55:00,69.8,62.6,30.18,NNE,30,5.0,13.0,78,0.00,,,0.08,Wunderground v.1.15,2013-02-12 07:55:00,
2013-02-11 22:00:00,69.9,62.4,30.18,East,86,6.0,10.0,77,0.00,,,0.08,Wunderground v.1.15,2013-02-12 08:00:00,
2013-02-11 22:05:00,70.0,62.1,30.18,NE,41,7.0,10.0,76,0.00,,,0.08,Wunderground v.1.15,2013-02-12 08:05:00,
2013-02-11 22:15:00,70.1,62.2,30.18,NE,56,7.0,15.0,76,0.00,,,0.08,Wunderground v.1.15,2013-02-12 08:15:00,
2013-02-11 22:25:00,69.8,62.3,30.18,East,80,5.0,7.0,77,0.00,,,0.08,Wunderground v.1.15,2013-02-12 08:25:00,
2013-02-11 22:35:00,69.8,61.9,30.18,NE,55,4.0,5.0,76,0.00,,,0.08,Wunderground v.1.15,2013-02-12 08:35:00,
2013-02-11 22:45:00,69.9,61.6,30.18,East,89,6.0,6.0,75,0.00,,,0.08,Wunderground v.1.15,2013-02-12 08:45:00,
2013-02-11 22:55:00,69.7,61.4,30.18,ENE,67,6.0,7.0,75,0.00,,,0.08,Wunderground v.1.15,2013-02-12 08:55:00,
2013-02-11 23:05:00,69.7,61.0,30.18,ENE,65,6.0,6.0,74,0.00,,,0.08,Wunderground v.1.15,2013-02-12 09:05:00,
2013-02-11 23:15:00,69.4,61.1,30.18,ESE,106,4.0,6.0,75,0.00,,,0.08,Wunderground v.1.15,2013-02-12 09:15:00,
2013-02-11 23:25:00,69.5,60.8,30.18,East,94,5.0,5.0,74,0.00,,,0.08,Wunderground v.1.15,2013-02-12 09:25:00,
2013-02-11 23:35:00,69.3,60.7,30.18,East,82,4.0,9.0,74,0.00,,,0.08,Wunderground v.1.15,2013-02-12 09:35:00,
2013-02-11 23:45:00,69.5,61.2,30.18,ENE,63,5.0,8.0,75,0.00,,,0.08,Wunderground v.1.15,2013-02-12 09:45:00,
2013-02-11 23:55:00,69.7,61.0,30.17,ENE,74,5.0,5.0,74,0.00,,,0.08,Wunderground v.1.15,2013-02-12 09:55:00,